Time;durP1;ratioP1;P1;durP2;ratioP2;P2;SDS_P1;SDS_P2;PMS_P1;PMS_P2;Temp;Humidity;BMP_temperature;BMP_pressure;BME280_temperature;BME280_humidity;BME280_pressure;Samples;Min_cycle;Max_cycle;Signal;HPM_P1;HPM_P2
2022/07/11 00:02:06;;;;;;;;;1.00;1.00;;;;;-146.67;28.67;74192.47;5103231;27;61759;-78
2022/07/11 00:04:33;;;;;;;;;2.50;1.75;;;;;-146.67;28.64;74192.47;5102680;27;62015;-78
2022/07/11 00:07:00;;;;;;;;;1.00;1.00;;;;;-146.67;28.70;74204.44;5103196;27;61818;-77
2022/07/11 00:09:25;;;;;;;;;4.25;2.25;;;;;-146.67;28.81;74208.44;5100929;27;63890;-77
2022/07/11 00:11:51;;;;;;;;;2.00;2.00;;;;;-146.67;28.90;74218.41;5101336;27;62014;-77
2022/07/11 00:14:17;;;;;;;;;2.00;2.00;;;;;-146.67;28.84;74220.41;5101594;27;61809;-78
2022/07/11 00:16:43;;;;;;;;;3.00;1.00;;;;;-146.67;28.78;74218.41;5101596;27;61844;-78
2022/07/11 00:19:09;;;;;;;;;1.25;1.25;;;;;-146.67;29.02;74216.44;5100354;27;63872;-78
2022/07/11 00:21:35;;;;;;;;;2.50;2.00;;;;;-146.67;28.89;74212.44;5102824;27;61844;-77
2022/07/11 00:24:02;;;;;;;;;3.50;2.50;;;;;-146.67;28.87;74218.41;5102943;27;61762;-77
2022/07/11 00:26:27;;;;;;;;;2.00;2.00;;;;;-146.67;28.91;74236.38;5101555;27;61807;-78
2022/07/11 00:28:52;;;;;;;;;2.00;2.00;;;;;-146.67;28.93;74234.38;5101794;27;61694;-78
2022/07/11 00:31:18;;;;;;;;;2.00;2.00;;;;;-146.67;29.08;74228.41;5102573;27;61745;-78
2022/07/11 00:33:43;;;;;;;;;2.00;2.00;;;;;-146.67;29.07;74224.41;5100803;27;62383;-78
2022/07/11 00:36:09;;;;;;;;;2.67;1.67;;;;;-146.67;28.90;74230.41;5103210;27;61841;-78
2022/07/11 00:38:34;;;;;;;;;3.50;2.75;;;;;-146.67;29.01;74240.38;5101821;27;61828;-78
2022/07/11 00:41:00;;;;;;;;;2.75;2.00;;;;;-146.67;29.18;74254.34;5101149;27;61979;-77
2022/07/11 00:43:36;;;;;;;;;2.25;2.00;;;;;-146.67;29.17;74250.38;5102680;27;61905;-77
2022/07/11 00:46:03;;;;;;;;;2.50;2.00;;;;;-146.67;29.34;74242.38;5101348;27;61952;-78
2022/07/11 00:48:29;;;;;;;;;2.00;1.00;;;;;-146.67;29.09;74240.38;5100377;27;63586;-77
2022/07/11 00:50:55;;;;;;;;;3.00;3.00;;;;;-146.67;29.09;74244.38;5100716;27;61796;-78
2022/07/11 00:53:21;;;;;;;;;1.00;1.00;;;;;-146.67;29.18;74258.34;5100661;27;61936;-78
2022/07/11 00:55:47;;;;;;;;;2.00;1.00;;;;;-146.67;29.18;74254.34;5102251;27;61955;-78
2022/07/11 00:58:13;;;;;;;;;2.50;2.50;;;;;-146.67;29.10;74260.34;5100205;27;64555;-78
2022/07/11 01:00:40;;;;;;;;;1.50;1.50;;;;;-146.67;29.23;74266.34;5102270;27;61819;-78
2022/07/11 01:03:07;;;;;;;;;2.00;2.00;;;;;-146.67;29.09;74268.31;5102218;27;61891;-78
2022/07/11 01:05:32;;;;;;;;;0.75;0.75;;;;;-146.67;29.29;74272.31;5103194;27;61746;-78
2022/07/11 01:07:58;;;;;;;;;2.25;1.00;;;;;-146.67;29.54;74272.31;5103581;27;65193;-77
2022/07/11 01:10:23;;;;;;;;;1.00;1.00;;;;;-146.67;29.56;74278.31;5104518;27;61790;-78
2022/07/11 01:12:50;;;;;;;;;2.00;1.00;;;;;-146.67;29.35;74278.31;5104399;27;61832;-77
2022/07/11 01:15:16;;;;;;;;;1.50;1.50;;;;;-146.67;29.42;74286.28;5105642;27;61783;-77
2022/07/11 01:17:41;;;;;;;;;2.00;2.00;;;;;-146.67;29.59;74288.28;5104904;27;61921;-78
2022/07/11 01:20:07;;;;;;;;;1.50;1.50;;;;;-146.67;29.55;74282.31;5104084;27;61914;-77
2022/07/11 01:22:38;;;;;;;;;3.25;3.00;;;;;-146.67;29.45;74284.28;5104325;27;62002;-78
2022/07/11 01:25:05;;;;;;;;;1.00;1.00;;;;;-146.67;29.51;74292.28;5104336;27;61845;-78
2022/07/11 01:27:32;;;;;;;;;4.25;0.75;;;;;-146.67;29.61;74296.28;5104528;27;61761;-78
2022/07/11 01:29:57;;;;;;;;;1.50;1.50;;;;;-146.67;29.62;74304.25;5103724;27;61877;-78
2022/07/11 01:32:23;;;;;;;;;3.25;2.00;;;;;-146.67;29.75;74304.25;5105322;27;62104;-77
2022/07/11 01:34:48;;;;;;;;;1.00;1.00;;;;;-146.67;29.41;74308.25;5105446;27;61890;-78
2022/07/11 01:37:14;;;;;;;;;1.00;0.50;;;;;-146.67;29.51;74310.25;5104702;27;61891;-77
2022/07/11 01:39:40;;;;;;;;;0.50;0.50;;;;;-146.67;29.62;74304.25;5103841;27;61971;-77
2022/07/11 01:42:05;;;;;;;;;1.00;1.00;;;;;-146.67;29.66;74312.25;5105359;27;61978;-77
2022/07/11 01:44:31;;;;;;;;;2.25;0.00;;;;;-146.67;29.81;74314.25;5103932;27;61761;-77
2022/07/11 01:46:56;;;;;;;;;1.00;1.00;;;;;-146.67;29.92;74312.25;5104525;27;63029;-77
2022/07/11 01:49:22;;;;;;;;;2.00;1.50;;;;;-146.67;29.79;74324.22;5105054;27;61812;-78
2022/07/11 01:51:49;;;;;;;;;2.00;2.00;;;;;-146.67;29.84;74328.22;5104932;27;61731;-77
2022/07/11 01:54:14;;;;;;;;;3.50;2.00;;;;;-146.67;29.80;74326.22;5112843;27;62182;-77
2022/07/11 01:56:40;;;;;;;;;1.50;0.50;;;;;-146.67;29.81;74318.25;5085729;27;63695;-77
2022/07/11 01:59:07;;;;;;;;;1.75;1.75;;;;;-146.67;29.86;74330.22;5104259;27;61969;-77
2022/07/11 02:01:32;;;;;;;;;4.00;2.00;;;;;-146.67;30.14;74338.19;5105172;27;61752;-77
2022/07/11 02:03:59;;;;;;;;;2.50;2.00;;;;;-146.67;29.74;74346.19;5086278;27;62071;-77
2022/07/11 02:06:24;;;;;;;;;1.50;1.50;;;;;-146.67;29.83;74360.16;5085902;27;63740;-77
2022/07/11 02:08:49;;;;;;;;;2.00;2.00;;;;;-146.67;29.99;74370.16;5086208;27;61778;-78
2022/07/11 02:11:15;;;;;;;;;2.75;1.00;;;;;-146.67;30.05;74356.16;5086399;27;62487;-77
2022/07/11 02:13:40;;;;;;;;;2.00;1.25;;;;;-146.67;30.29;74364.16;5086360;27;61870;-77
2022/07/11 02:16:06;;;;;;;;;2.00;1.00;;;;;-146.67;30.00;74366.16;5103637;27;61824;-77
2022/07/11 02:18:34;;;;;;;;;2.50;1.00;;;;;-146.67;30.20;74362.16;5104491;27;61881;-77
2022/07/11 02:21:00;;;;;;;;;2.00;2.00;;;;;-146.67;30.39;74358.16;5104503;27;61888;-77
2022/07/11 02:23:26;;;;;;;;;1.00;1.00;;;;;-146.67;30.16;74370.16;5104926;27;61946;-77
2022/07/11 02:25:53;;;;;;;;;1.50;0.75;;;;;-146.67;30.09;74372.13;5085571;27;63673;-77
2022/07/11 02:28:19;;;;;;;;;1.25;1.25;;;;;-146.67;30.32;74380.13;5104031;27;61833;-77
2022/07/11 02:30:45;;;;;;;;;2.00;2.00;;;;;-146.67;30.20;74372.13;5104346;27;61811;-77
2022/07/11 02:33:15;;;;;;;;;0.50;0.50;;;;;-146.67;30.56;74372.13;5085702;27;61719;-77
2022/07/11 02:35:45;;;;;;;;;1.00;1.00;;;;;-146.67;30.35;74372.13;5085334;27;63766;-77
2022/07/11 02:38:11;;;;;;;;;3.00;2.00;;;;;-146.67;30.39;74372.13;5085765;27;61681;-77
2022/07/11 02:40:37;;;;;;;;;1.00;1.00;;;;;-146.67;30.26;74376.13;5104256;27;61876;-77
2022/07/11 02:43:03;;;;;;;;;2.75;1.50;;;;;-146.67;30.53;74386.13;5104185;27;61678;-77
2022/07/11 02:45:28;;;;;;;;;0.75;0.75;;;;;-146.67;30.60;74392.09;5085182;27;63818;-77
2022/07/11 02:47:54;;;;;;;;;4.00;2.00;;;;;-146.67;30.66;74400.09;5104171;27;62008;-77
2022/07/11 02:50:19;;;;;;;;;1.25;1.25;;;;;-146.67;30.79;74408.06;5085515;27;61836;-77
2022/07/11 02:52:45;;;;;;;;;2.00;2.00;;;;;-146.67;30.46;74396.09;5085940;27;61989;-77
2022/07/11 02:55:12;;;;;;;;;1.25;1.25;;;;;-146.67;30.42;74396.09;5095617;27;63772;-77
2022/07/11 02:57:38;;;;;;;;;1.25;1.25;;;;;-146.67;30.83;74410.06;5102125;27;61814;-78
2022/07/11 03:00:05;;;;;;;;;4.00;1.00;;;;;-146.67;30.72;74408.06;5102481;27;61828;-77
2022/07/11 03:02:31;;;;;;;;;2.00;2.00;;;;;-146.67;30.88;74412.06;5102530;27;61870;-77
2022/07/11 03:04:57;;;;;;;;;2.00;2.00;;;;;-146.67;31.14;74410.06;5103088;27;63019;-77
2022/07/11 03:07:27;;;;;;;;;1.75;1.75;;;;;-146.67;30.89;74412.06;5102608;27;62117;-77
2022/07/11 03:09:53;;;;;;;;;2.00;2.00;;;;;-146.67;30.76;74406.06;5103758;27;62053;-77
2022/07/11 03:12:19;;;;;;;;;2.00;2.00;;;;;-146.67;30.69;74414.06;5103604;27;61778;-77
2022/07/11 03:14:44;;;;;;;;;2.00;1.00;;;;;-146.67;30.98;74420.06;5101739;27;63840;-77
2022/07/11 03:17:10;;;;;;;;;2.25;2.25;;;;;-146.67;31.12;74432.03;5103706;27;61909;-77
2022/07/11 03:19:36;;;;;;;;;4.75;3.00;;;;;-146.67;30.83;74430.03;5103652;27;62403;-77
2022/07/11 03:22:02;;;;;;;;;2.75;2.75;;;;;-146.67;30.96;74428.03;5102510;27;62711;-77
2022/07/11 03:24:28;;;;;;;;;3.00;3.00;;;;;-146.67;30.81;74426.03;5101675;27;64059;-77
2022/07/11 03:26:53;;;;;;;;;2.75;2.75;;;;;-146.67;31.05;74426.03;5102668;27;62016;-77
2022/07/11 03:29:19;;;;;;;;;4.00;2.25;;;;;-146.67;30.98;74428.03;5103038;27;62001;-77
2022/07/11 03:31:44;;;;;;;;;1.50;1.50;;;;;-146.67;30.71;74430.03;5102130;27;61881;-77
2022/07/11 03:34:09;;;;;;;;;1.50;1.50;;;;;-146.67;31.04;74436.03;5102789;27;61866;-77
2022/07/11 03:36:35;;;;;;;;;3.25;2.00;;;;;-146.67;31.04;74436.03;5102007;27;61904;-77
2022/07/11 03:39:00;;;;;;;;;3.00;3.00;;;;;-146.67;31.18;74442.00;5101978;27;61952;-77
2022/07/11 03:41:26;;;;;;;;;4.25;3.25;;;;;-146.67;31.07;74448.00;5101878;27;61781;-77
2022/07/11 03:43:51;;;;;;;;;3.00;3.00;;;;;-146.67;30.97;74450.00;5102680;27;62051;-77
2022/07/11 03:46:16;;;;;;;;;2.00;2.00;;;;;-146.67;31.09;74456.00;5103074;27;61769;-77
2022/07/11 03:48:42;;;;;;;;;2.00;2.00;;;;;-146.67;31.23;74456.00;5103276;27;61836;-77
2022/07/11 03:51:07;;;;;;;;;3.00;3.00;;;;;-146.67;31.31;74446.00;5103217;27;61905;-77
2022/07/11 03:53:33;;;;;;;;;2.00;2.00;;;;;-146.67;31.18;74440.00;5102548;27;62541;-78
2022/07/11 03:55:59;;;;;;;;;1.50;1.50;;;;;-146.67;30.94;74444.00;5102894;27;61932;-77
2022/07/11 03:58:24;;;;;;;;;1.00;1.00;;;;;-146.67;31.20;74452.00;5102734;27;62423;-77
2022/07/11 04:00:50;;;;;;;;;1.75;1.75;;;;;-146.67;31.27;74459.97;5101945;27;61971;-77
2022/07/11 04:03:15;;;;;;;;;2.25;2.00;;;;;-146.67;31.30;74469.97;5100793;27;63690;-77
2022/07/11 04:05:41;;;;;;;;;2.25;2.25;;;;;-146.67;31.38;74463.97;5103167;27;61859;-77
2022/07/11 04:08:06;;;;;;;;;3.00;1.00;;;;;-146.67;31.18;74465.97;5101584;27;62057;-77
2022/07/11 04:10:31;;;;;;;;;3.00;3.00;;;;;-146.67;31.46;74459.97;5101381;27;61731;-77
2022/07/11 04:12:57;;;;;;;;;1.25;1.25;;;;;-146.67;31.31;74454.00;5100843;27;64811;-77
2022/07/11 04:15:22;;;;;;;;;1.75;1.75;;;;;-146.67;31.54;74459.97;5102608;27;62080;-77
2022/07/11 04:17:48;;;;;;;;;2.00;1.25;;;;;-146.67;31.45;74463.97;5101341;27;61897;-77
2022/07/11 04:20:14;;;;;;;;;3.00;2.75;;;;;-146.67;31.58;74465.97;5101453;27;62253;-77
2022/07/11 04:22:39;;;;;;;;;2.25;2.25;;;;;-146.67;31.16;74469.97;5102133;27;61877;-77
2022/07/11 04:25:05;;;;;;;;;2.00;1.00;;;;;-146.67;31.34;74467.97;5102326;27;61840;-77
2022/07/11 04:27:30;;;;;;;;;3.00;2.00;;;;;-146.67;31.53;74465.97;5101149;27;61762;-79
2022/07/11 04:29:55;;;;;;;;;3.50;2.25;;;;;-146.67;31.47;74473.97;5102846;27;61947;-77
2022/07/11 04:32:21;;;;;;;;;2.00;2.00;;;;;-146.67;31.34;74475.94;5100413;27;63764;-77
2022/07/11 04:34:46;;;;;;;;;3.75;1.00;;;;;-146.67;31.28;74473.97;5100995;27;61928;-77
2022/07/11 04:37:12;;;;;;;;;2.00;2.00;;;;;-146.67;31.51;74469.97;5102794;27;61996;-77
2022/07/11 04:39:37;;;;;;;;;2.50;2.00;;;;;-146.67;31.36;74473.97;5103156;27;61928;-77
2022/07/11 04:42:03;;;;;;;;;2.00;2.00;;;;;-146.67;31.22;74467.97;5104085;27;63351;-77
2022/07/11 04:44:28;;;;;;;;;1.75;1.75;;;;;-146.67;31.35;74473.97;5104589;27;62171;-77
2022/07/11 04:46:54;;;;;;;;;1.25;1.25;;;;;-146.67;31.52;74473.97;5104784;27;61967;-77
2022/07/11 04:49:19;;;;;;;;;2.00;2.00;;;;;-146.67;31.76;74475.94;5104665;27;61947;-77
2022/07/11 04:51:45;;;;;;;;;3.50;3.00;;;;;-146.67;31.20;74483.94;5103728;27;64714;-77
2022/07/11 04:54:11;;;;;;;;;2.25;2.25;;;;;-146.67;31.48;74485.94;5116495;27;61946;-77
2022/07/11 04:56:37;;;;;;;;;1.75;1.75;;;;;-146.67;31.35;74485.94;5121337;27;61836;-77
2022/07/11 04:59:03;;;;;;;;;3.00;3.00;;;;;-146.67;31.66;74489.94;5105758;27;61965;-77
2022/07/11 05:01:29;;;;;;;;;2.75;2.00;;;;;-146.67;31.71;74481.94;5105227;27;62163;-77
2022/07/11 05:03:55;;;;;;;;;1.75;1.75;;;;;-146.67;31.53;74479.94;5104085;27;61768;-77
2022/07/11 05:06:20;;;;;;;;;3.25;1.75;;;;;-146.67;31.63;74467.97;5104310;27;61823;-77
2022/07/11 05:08:46;;;;;;;;;2.25;2.25;;;;;-146.67;31.45;74463.97;5104382;27;62184;-77
2022/07/11 05:11:11;;;;;;;;;1.25;1.25;;;;;-146.67;31.40;74463.97;5103605;27;64647;-76
2022/07/11 05:13:37;;;;;;;;;2.00;2.00;;;;;-146.67;31.25;74469.97;5104121;27;62072;-77
2022/07/11 05:16:03;;;;;;;;;2.25;2.00;;;;;-146.67;31.51;74465.97;5104417;27;61811;-77
2022/07/11 05:18:28;;;;;;;;;2.50;2.00;;;;;-146.67;31.10;74469.97;5105477;27;61982;-77
2022/07/11 05:20:54;;;;;;;;;1.00;1.00;;;;;-146.67;31.06;74467.97;5105054;27;62024;-77
2022/07/11 05:23:20;;;;;;;;;5.50;2.50;;;;;-146.67;31.45;74463.97;5105350;27;61909;-77
2022/07/11 05:25:45;;;;;;;;;2.00;2.00;;;;;-146.67;31.24;74457.97;5105493;27;61747;-77
2022/07/11 05:28:10;;;;;;;;;2.00;2.00;;;;;-146.67;31.37;74456.00;5105438;27;61937;-77
2022/07/11 05:30:36;;;;;;;;;3.00;3.00;;;;;-146.67;31.09;74452.00;5103269;27;63913;-77
2022/07/11 05:33:01;;;;;;;;;3.50;2.00;;;;;-146.67;31.03;74438.03;5103885;27;63059;-77
2022/07/11 05:35:27;;;;;;;;;1.50;1.50;;;;;-146.67;31.33;74434.03;5105421;27;61789;-76
2022/07/11 05:37:57;;;;;;;;;2.25;1.00;;;;;-146.67;31.04;74408.06;5105311;27;61708;-80
2022/07/11 05:40:24;;;;;;;;;4.00;2.50;;;;;-146.67;30.79;74376.13;5104715;27;62700;-80
2022/07/11 05:42:50;;;;;;;;;3.00;3.00;;;;;-146.67;30.66;74336.19;5103812;27;61961;-80
2022/07/11 05:45:15;;;;;;;;;4.25;3.00;;;;;-146.67;30.07;74236.38;5103807;27;61851;-80
2022/07/11 05:47:40;;;;;;;;;4.25;3.00;;;;;-146.67;29.16;74156.53;5105108;27;62171;-80
2022/07/11 05:50:06;;;;;;;;;1.50;1.50;;;;;-146.67;28.73;74078.69;5102175;27;64040;-81
2022/07/11 05:52:32;;;;;;;;;4.00;3.00;;;;;-146.67;28.30;73992.84;5104923;27;62009;-79
2022/07/11 05:54:58;;;;;;;;;2.25;2.25;;;;;-146.67;28.07;73956.91;5098798;27;61995;-81
2022/07/11 05:57:24;;;;;;;;;5.25;2.75;;;;;-146.67;27.82;73978.88;5105177;27;61949;-81
2022/07/11 05:59:49;;;;;;;;;2.00;2.00;;;;;-146.67;27.56;73948.94;5093761;27;63713;-86
2022/07/11 06:02:15;;;;;;;;;3.00;2.00;;;;;-146.67;27.46;73905.00;5125757;27;61734;-85
2022/07/11 06:04:42;;;;;;;;;2.00;2.00;;;;;-146.67;27.93;73918.97;5072444;27;62031;-79
2022/07/11 06:07:08;;;;;;;;;2.00;2.00;;;;;-146.67;27.72;73932.97;5066229;28;61809;-85
2022/07/11 06:09:35;;;;;;;;;1.00;1.00;;;;;-146.67;27.58;73940.94;5065456;28;63730;-83
2022/07/11 06:12:00;;;;;;;;;2.00;2.00;;;;;-146.67;28.08;73958.91;5065811;28;61761;-82
2022/07/11 06:14:26;;;;;;;;;1.50;1.50;;;;;-146.67;28.04;73964.91;5082286;27;61855;-82
2022/07/11 06:16:52;;;;;;;;;2.00;2.00;;;;;-146.67;27.87;73966.91;5104128;27;61738;-83
2022/07/11 06:19:17;;;;;;;;;2.33;2.33;;;;;-146.67;28.24;73960.91;5101997;27;62174;-82
2022/07/11 06:21:43;;;;;;;;;1.67;1.67;;;;;-146.67;28.03;73944.94;5087412;27;61851;-82
2022/07/11 06:24:09;;;;;;;;;3.25;1.00;;;;;-146.67;28.02;73942.94;5103225;27;61857;-82
2022/07/11 06:26:34;;;;;;;;;3.00;3.00;;;;;-146.67;27.82;73909.00;5103452;27;61744;-82
2022/07/11 06:29:00;;;;;;;;;1.67;1.67;;;;;-146.67;27.73;73875.06;5076696;27;65073;-81
2022/07/11 06:31:25;;;;;;;;;5.67;2.67;;;;;-146.67;26.86;73767.28;5071151;27;61919;-82
2022/07/11 06:33:54;;;;;;;;;4.00;2.00;;;;;-146.67;26.58;73721.38;5101604;27;62438;-81
2022/07/11 06:36:25;;;;;;;;;3.00;2.00;;;;;-146.67;26.65;73729.34;5085390;27;62133;-80
2022/07/11 06:38:52;;;;;;;;;4.33;3.00;;;;;-146.67;26.81;73721.38;5105159;27;62120;-85
2022/07/11 06:41:17;;;;;;;;;2.00;2.00;;;;;-146.67;26.39;73681.44;5095174;27;62015;-84
2022/07/11 06:43:43;;;;;;;;;2.00;2.00;;;;;-146.67;26.67;73721.38;5084070;27;61966;-85
2022/07/11 06:46:08;;;;;;;;;1.67;1.67;;;;;-146.67;27.01;73769.28;5087730;27;62174;-84
2022/07/11 06:48:34;;;;;;;;;2.33;2.33;;;;;-146.67;27.33;73799.22;5085454;27;64933;-85
2022/07/11 06:51:00;;;;;;;;;4.00;2.33;;;;;-146.67;27.24;73827.16;5084663;27;61860;-84
2022/07/11 06:53:26;;;;;;;;;1.00;1.00;;;;;-146.67;27.22;73849.13;5103731;27;61934;-84
2022/07/11 06:55:51;;;;;;;;;3.00;3.00;;;;;-146.67;27.40;73871.06;5105411;27;61921;-83
2022/07/11 06:58:31;;;;;;;;;1.00;1.00;;;;;-146.67;27.44;73879.06;5085492;27;64967;-84
2022/07/11 07:01:07;;;;;;;;;1.00;1.00;;;;;-146.67;27.30;73901.03;5124466;27;61987;-85
2022/07/11 07:03:34;;;;;;;;;2.67;1.33;;;;;-146.67;27.53;73909.00;5105564;27;61909;-85
2022/07/11 07:06:00;;;;;;;;;1.33;1.33;;;;;-146.67;27.62;73924.97;5105896;27;62164;-85
2022/07/11 07:11:18;;;;;;;;;1.00;1.00;;;;;-146.67;27.84;73936.94;5124020;27;61936;-84
2022/07/11 07:13:45;;;;;;;;;3.00;3.00;;;;;-146.67;28.03;73942.94;5105838;27;61947;-84
2022/07/11 07:16:11;;;;;;;;;2.25;2.00;;;;;-146.67;28.11;73940.94;5124363;27;61807;-77
2022/07/11 07:18:38;;;;;;;;;1.00;1.00;;;;;-146.67;28.16;73944.94;5123266;27;61781;-76
2022/07/11 07:21:06;;;;;;;;;3.00;2.00;;;;;-146.67;27.73;73938.94;5124257;27;61895;-75
2022/07/11 07:23:32;;;;;;;;;3.00;2.00;;;;;-146.67;27.84;73932.97;5105553;27;61896;-76
2022/07/11 07:25:57;;;;;;;;;1.00;1.00;;;;;-146.67;28.11;73940.94;5124249;27;62076;-78
2022/07/11 07:28:23;;;;;;;;;1.33;1.33;;;;;-146.67;28.04;73944.94;5064942;27;63616;-76
2022/07/11 07:30:48;;;;;;;;;4.00;1.75;;;;;-146.67;28.22;73936.94;5081665;28;61802;-77
2022/07/11 07:33:13;;;;;;;;;0.67;0.67;;;;;-146.67;28.16;73936.94;5062845;28;62470;-77
2022/07/11 07:35:39;;;;;;;;;1.33;1.33;;;;;-146.67;27.57;73940.94;5064499;28;61927;-77
2022/07/11 18:25:01;;;;;;;;;0.00;0.00;;;;;-146.67;19.94;72374.25;5075323;28;61878;-82
2022/07/11 18:27:27;;;;;;;;;0.00;0.00;;;;;-146.67;19.84;72332.34;5058451;28;62281;-81
2022/07/11 18:29:53;;;;;;;;;0.00;0.00;;;;;-146.67;19.47;72284.47;5056866;28;62478;-81
2022/07/11 18:32:18;;;;;;;;;0.00;0.00;;;;;-146.67;19.42;72244.56;5045304;28;64840;-81
2022/07/11 18:34:44;;;;;;;;;0.00;0.00;;;;;-146.67;19.48;72198.66;5038958;28;61855;-82
2022/07/11 18:37:10;;;;;;;;;0.33;0.00;;;;;-146.67;19.19;72192.69;5038885;28;61846;-81
2022/07/11 18:42:20;;;;;;;;;1.00;0.00;;;;;-146.67;19.38;72220.63;5038131;28;62282;-81
2022/07/11 18:44:46;;;;;;;;;0.67;0.67;;;;;-146.67;19.50;72234.59;5044653;28;61760;-80
2022/07/11 18:47:11;;;;;;;;;0.00;0.00;;;;;-146.67;19.45;72266.50;5058765;28;61854;-80
2022/07/11 18:49:37;;;;;;;;;0.00;0.00;;;;;-146.67;19.73;72314.41;5052063;28;62144;-81
2022/07/11 18:52:03;;;;;;;;;0.00;0.00;;;;;-146.67;19.98;72398.19;5055980;28;63710;-81
2022/07/11 18:54:31;;;;;;;;;0.00;0.00;;;;;-146.67;20.19;72468.03;5058448;28;62099;-80
2022/07/11 18:56:57;;;;;;;;;0.00;0.00;;;;;-146.67;20.40;72529.91;5058765;28;62789;-80
2022/07/11 18:59:22;;;;;;;;;0.00;0.00;;;;;-146.67;20.74;72603.72;5056490;28;61970;-80
2022/07/11 19:01:48;;;;;;;;;0.00;0.00;;;;;-146.67;20.56;72667.59;5057213;28;62774;-80
2022/07/11 19:04:14;;;;;;;;;0.00;0.00;;;;;-146.67;21.22;72717.47;5057554;28;62046;-81
2022/07/11 19:06:40;;;;;;;;;0.67;0.33;;;;;-146.67;20.97;72773.34;5056865;28;62044;-82
2022/07/11 19:09:07;;;;;;;;;0.00;0.00;;;;;-146.67;21.56;72829.22;5057302;28;62038;-81
2022/07/11 19:11:33;;;;;;;;;1.33;1.33;;;;;-146.67;21.68;72863.16;5055727;28;63824;-81
2022/07/11 19:13:58;;;;;;;;;0.00;0.00;;;;;-146.67;21.52;72891.09;5067388;28;62082;-82
2022/07/11 19:16:25;;;;;;;;;0.00;0.00;;;;;-146.67;21.80;72931.00;5050916;28;62250;-81
2022/07/11 19:18:51;;;;;;;;;0.00;0.00;;;;;-146.67;21.67;72956.94;5055976;28;61866;-82
2022/07/11 19:21:16;;;;;;;;;0.67;0.00;;;;;-146.67;22.04;72994.88;5057556;28;62856;-81
2022/07/11 19:23:42;;;;;;;;;0.00;0.00;;;;;-146.67;22.07;73026.81;5061646;28;62038;-82
2022/07/11 19:26:09;;;;;;;;;1.00;1.00;;;;;-146.67;22.05;73048.75;5063741;28;61905;-82
2022/07/11 19:28:35;;;;;;;;;0.00;0.00;;;;;-146.67;22.39;73070.72;5063415;28;62149;-80
2022/07/11 19:31:01;;;;;;;;;0.00;0.00;;;;;-146.67;22.48;73082.69;5063729;28;61957;-81
2022/07/11 19:33:27;;;;;;;;;0.00;0.00;;;;;-146.67;22.42;73108.63;5047604;28;61971;-81
2022/07/11 19:35:52;;;;;;;;;1.00;0.00;;;;;-146.67;22.63;73134.56;5044471;28;62088;-81
2022/07/11 19:38:18;;;;;;;;;1.00;0.00;;;;;-146.67;22.65;73154.53;5044707;28;61701;-82
2022/07/11 19:40:44;;;;;;;;;0.00;0.00;;;;;-146.67;22.71;73184.47;5044010;28;61816;-80
2022/07/11 19:43:10;;;;;;;;;2.67;0.00;;;;;-146.67;22.89;73210.41;5050317;28;61766;-81
2022/07/11 19:45:36;;;;;;;;;1.33;0.00;;;;;-146.67;22.94;73234.38;5045436;28;62290;-80
2022/07/11 19:48:02;;;;;;;;;2.00;0.67;;;;;-146.67;23.25;73248.34;5045947;28;61815;-80
2022/07/11 19:50:28;;;;;;;;;2.00;0.67;;;;;-146.67;23.12;73272.28;5061271;28;63066;-80
2022/07/11 19:52:53;;;;;;;;;0.00;0.00;;;;;-146.67;23.70;73294.22;5062179;28;61940;-80
2022/07/11 19:58:03;;;;;;;;;1.00;1.00;;;;;-146.67;23.21;73316.19;5062277;28;61712;-80
2022/07/11 20:00:29;;;;;;;;;1.00;1.00;;;;;-146.67;23.72;73334.16;5045360;28;63560;-80
2022/07/11 20:02:55;;;;;;;;;2.67;1.00;;;;;-146.67;23.73;73348.13;5064149;28;61935;-79
2022/07/11 20:05:22;;;;;;;;;0.33;0.33;;;;;-146.67;24.11;73360.09;5063500;28;61682;-83
2022/07/11 20:07:48;;;;;;;;;2.00;1.00;;;;;-146.67;23.84;73380.06;5063835;28;62046;-79
2022/07/11 20:10:13;;;;;;;;;2.33;0.33;;;;;-146.67;23.81;73392.03;5044002;28;63840;-81
2022/07/11 20:12:39;;;;;;;;;1.67;0.67;;;;;-146.67;24.30;73408.00;5043683;28;61726;-81
2022/07/11 20:15:08;;;;;;;;;1.00;1.00;;;;;-146.67;24.15;73421.97;5053824;28;61957;-79
2022/07/11 20:17:34;;;;;;;;;2.33;1.00;;;;;-146.67;24.24;73431.94;5044581;28;62184;-80
2022/07/11 20:20:05;;;;;;;;;1.33;1.00;;;;;-146.67;24.18;73445.91;5062293;28;62717;-80
2022/07/11 20:22:31;;;;;;;;;1.00;1.00;;;;;-146.67;24.19;73459.91;5044807;28;61799;-81
2022/07/11 20:24:56;;;;;;;;;0.00;0.00;;;;;-146.67;24.42;73477.84;5044341;28;61879;-80
2022/07/11 20:27:22;;;;;;;;;1.00;1.00;;;;;-146.67;24.52;73485.84;5061319;28;61855;-75
2022/07/11 20:29:47;;;;;;;;;1.00;1.00;;;;;-146.67;24.41;73505.81;5043955;28;63593;-75
2022/07/11 20:32:13;;;;;;;;;1.00;1.00;;;;;-146.67;24.51;73511.78;5062583;28;61713;-75
2022/07/11 20:34:39;;;;;;;;;1.33;1.00;;;;;-146.67;24.40;73521.78;5063358;28;61863;-74
2022/07/11 20:37:06;;;;;;;;;0.67;0.67;;;;;-146.67;24.22;73533.75;5061777;28;61712;-75
2022/07/11 20:39:33;;;;;;;;;1.67;0.67;;;;;-146.67;24.65;73541.72;5030224;28;63754;-75
2022/07/11 20:41:59;;;;;;;;;3.67;0.67;;;;;-146.67;24.72;73559.69;5044857;28;61728;-75
2022/07/11 20:44:25;;;;;;;;;0.67;0.67;;;;;-146.67;24.78;73567.69;5063313;28;61818;-75
2022/07/11 20:46:51;;;;;;;;;1.67;1.00;;;;;-146.67;24.58;73579.66;5063502;28;62128;-75
2022/07/11 20:49:17;;;;;;;;;0.33;0.33;;;;;-146.67;25.16;73585.63;5044443;28;64002;-75
2022/07/11 20:51:43;;;;;;;;;0.00;0.00;;;;;-146.67;24.94;73601.59;5062605;28;62149;-75
2022/07/11 20:54:08;;;;;;;;;0.67;0.67;;;;;-146.67;25.17;73609.59;5063317;28;61874;-74
2022/07/11 20:56:33;;;;;;;;;1.67;1.00;;;;;-146.67;25.28;73617.56;5062455;28;61949;-74
2022/07/11 20:58:59;;;;;;;;;0.00;0.00;;;;;-146.67;25.06;73621.56;5044239;28;63321;-74
2022/07/11 21:01:25;;;;;;;;;1.00;1.00;;;;;-146.67;25.31;73621.56;5062137;28;61801;-75
2022/07/11 21:03:50;;;;;;;;;2.00;1.33;;;;;-146.67;25.09;73621.56;5060835;28;61983;-74
2022/07/11 21:06:16;;;;;;;;;0.67;0.67;;;;;-146.67;25.40;73629.56;5044442;28;61887;-75
2022/07/11 21:08:41;;;;;;;;;1.00;1.00;;;;;-146.67;25.12;73633.53;5053094;28;63887;-74
2022/07/11 21:11:08;;;;;;;;;0.00;0.00;;;;;-146.67;25.25;73639.53;5062532;28;61867;-74
2022/07/11 21:13:34;;;;;;;;;1.00;1.00;;;;;-146.67;25.42;73649.50;5062408;28;61954;-74
2022/07/11 21:15:59;;;;;;;;;1.00;1.00;;;;;-146.67;25.49;73657.50;5043842;28;62011;-74
2022/07/11 21:18:25;;;;;;;;;1.00;1.00;;;;;-146.67;25.59;73663.47;5061748;28;63057;-75
2022/07/11 21:20:51;;;;;;;;;0.00;0.00;;;;;-146.67;25.58;73663.47;5044323;28;62046;-74
2022/07/11 21:23:16;;;;;;;;;0.33;0.33;;;;;-146.67;25.51;73665.47;5061345;28;61800;-75
2022/07/11 21:25:43;;;;;;;;;0.67;0.67;;;;;-146.67;25.91;73687.44;5041151;28;62878;-75
2022/07/11 21:28:09;;;;;;;;;0.67;0.67;;;;;-146.67;25.85;73699.41;5058459;28;62340;-76
2022/07/11 21:30:34;;;;;;;;;0.00;0.00;;;;;-146.67;26.22;73701.41;5043666;28;62040;-76
2022/07/11 21:33:00;;;;;;;;;1.00;1.00;;;;;-146.67;25.92;73707.41;5043591;28;61955;-76
2022/07/11 21:35:25;;;;;;;;;1.67;1.67;;;;;-146.67;25.86;73713.38;5043945;28;62121;-76
2022/07/11 21:37:51;;;;;;;;;2.33;0.67;;;;;-146.67;26.27;73713.38;5042760;28;63645;-76
2022/07/11 21:40:16;;;;;;;;;3.00;1.67;;;;;-146.67;26.13;73717.38;5060509;28;61766;-76
2022/07/11 21:42:42;;;;;;;;;1.67;1.67;;;;;-146.67;26.30;73725.38;5043626;28;61956;-76
2022/07/11 21:45:08;;;;;;;;;1.00;1.00;;;;;-146.67;26.52;73725.38;5061642;28;61724;-76
2022/07/11 21:47:34;;;;;;;;;4.00;4.00;;;;;-146.67;26.13;73727.34;5042813;28;64774;-76
2022/07/11 21:50:00;;;;;;;;;5.33;4.33;;;;;-146.67;26.30;73747.31;5061556;28;61846;-76
2022/07/11 21:52:25;;;;;;;;;5.67;4.00;;;;;-146.67;26.76;73763.28;5061424;28;62002;-76
2022/07/11 21:54:50;;;;;;;;;7.67;5.00;;;;;-146.67;26.93;73777.25;5061840;28;61898;-76
2022/07/11 21:57:16;;;;;;;;;6.00;4.33;;;;;-146.67;26.73;73769.28;5061019;28;62939;-76
2022/07/11 21:59:41;;;;;;;;;7.67;6.33;;;;;-146.67;26.85;73779.25;5061420;28;62021;-76
2022/07/11 22:02:06;;;;;;;;;5.67;4.33;;;;;-146.67;27.10;73793.22;5060516;28;61973;-76
2022/07/11 22:04:32;;;;;;;;;7.00;6.00;;;;;-146.67;27.24;73807.19;5060337;28;62217;-76
2022/07/11 22:06:57;;;;;;;;;3.33;3.33;;;;;-146.67;27.38;73813.19;5060755;28;62014;-76